createdAt,value
2018-07-30T00:01:51.583Z,10.57
2018-07-30T00:04:19.643Z,12.43
2018-07-30T00:06:53.888Z,11.83
2018-07-30T00:09:21.949Z,10.63
2018-07-30T00:11:53.881Z,11.93
2018-07-30T00:14:21.918Z,16.23
2018-07-30T00:16:53.303Z,11.73
2018-07-30T00:19:21.360Z,11.77
2018-07-30T00:21:52.725Z,13.53
2018-07-30T00:24:20.822Z,11.50
2018-07-30T00:26:48.917Z,11.33
2018-07-30T00:29:16.956Z,11.43
2018-07-30T00:31:50.943Z,11.07
2018-07-30T00:34:22.614Z,10.93
2018-07-30T00:36:52.430Z,11.43
2018-07-30T00:39:20.329Z,11.93
2018-07-30T00:41:48.382Z,11.88
2018-07-30T00:44:16.491Z,12.23
2018-07-30T00:46:44.556Z,11.60
2018-07-30T00:49:12.592Z,10.23
2018-07-30T00:51:40.479Z,12.00
2018-07-30T00:54:08.554Z,12.70
2018-07-30T00:56:36.593Z,12.30
2018-07-30T00:59:04.684Z,12.37
2018-07-30T01:01:32.731Z,12.27
2018-07-30T01:04:00.804Z,13.20
2018-07-30T01:06:28.885Z,12.77
2018-07-30T01:09:02.939Z,12.93
2018-07-30T01:11:34.114Z,12.00
2018-07-30T01:14:15.043Z,12.23
2018-07-30T01:16:52.907Z,12.43
2018-07-30T01:19:21.016Z,12.00
2018-07-30T01:21:52.814Z,10.70
2018-07-30T01:24:22.590Z,11.97
2018-07-30T01:26:52.227Z,11.70
2018-07-30T01:29:20.278Z,10.50
2018-07-30T01:31:48.324Z,11.38
2018-07-30T01:34:16.199Z,14.07
2018-07-30T01:36:52.589Z,13.50
2018-07-30T01:39:20.653Z,14.17
2018-07-30T01:41:48.686Z,14.13
2018-07-30T01:44:22.548Z,14.03
2018-07-30T01:46:50.598Z,14.03
2018-07-30T01:49:22.382Z,13.73
2018-07-30T01:51:52.422Z,14.97
2018-07-30T01:54:22.196Z,15.03
2018-07-30T01:56:50.267Z,16.30
2018-07-30T01:59:24.158Z,14.17
2018-07-30T02:01:52.206Z,14.33
2018-07-30T02:04:23.883Z,14.73
2018-07-30T02:06:52.487Z,14.10
2018-07-30T02:09:22.179Z,15.00
2018-07-30T02:11:53.983Z,13.93
2018-07-30T02:14:22.513Z,14.50
2018-07-30T02:16:51.723Z,14.23
2018-07-30T02:19:19.769Z,14.27
2018-07-30T02:21:47.819Z,14.03
2018-07-30T02:24:21.794Z,13.33
2018-07-30T02:26:49.857Z,11.80
2018-07-30T02:29:17.928Z,13.30
2018-07-30T02:31:45.783Z,13.30
2018-07-30T02:34:23.443Z,14.33
2018-07-30T02:36:51.523Z,13.90
2018-07-30T02:39:19.641Z,15.47
2018-07-30T02:41:53.451Z,13.07
2018-07-30T02:44:22.593Z,13.40
2018-07-30T02:46:52.198Z,13.27
2018-07-30T02:49:23.863Z,13.73
2018-07-30T02:51:52.494Z,15.43
2018-07-30T02:54:22.340Z,15.77
2018-07-30T02:56:54.658Z,15.93
2018-07-30T02:59:22.768Z,16.30
2018-07-30T03:01:50.846Z,15.73
2018-07-30T03:04:22.642Z,15.43
2018-07-30T03:06:50.690Z,15.90
2018-07-30T03:09:18.759Z,14.77
2018-07-30T03:11:46.839Z,15.27
2018-07-30T03:14:14.902Z,16.20
2018-07-30T03:16:42.947Z,15.60
2018-07-30T03:19:12.153Z,15.33
2018-07-30T03:21:43.882Z,14.90
2018-07-30T03:24:12.680Z,15.20
2018-07-30T03:26:42.549Z,14.57
2018-07-30T03:29:10.630Z,12.67
2018-07-30T03:31:38.692Z,13.87
2018-07-30T03:34:06.742Z,16.43
2018-07-30T03:36:42.015Z,17.93
2018-07-30T03:39:10.198Z,16.87
2018-07-30T03:41:38.485Z,16.57
2018-07-30T03:44:07.046Z,15.37
2018-07-30T03:46:41.814Z,16.53
2018-07-30T03:49:12.944Z,18.53
2018-07-30T03:51:42.338Z,18.10
2018-07-30T03:54:14.028Z,17.13
2018-07-30T03:56:42.107Z,16.77
2018-07-30T03:59:13.584Z,16.13
2018-07-30T04:01:41.656Z,15.90
2018-07-30T04:04:12.845Z,15.13
2018-07-30T04:06:42.573Z,16.17
2018-07-30T04:09:10.436Z,16.77
2018-07-30T04:11:44.282Z,14.63
2018-07-30T04:14:12.345Z,16.20
2018-07-30T04:16:46.704Z,15.13
2018-07-30T04:19:14.943Z,14.67
2018-07-30T04:21:43.228Z,15.10
2018-07-30T04:24:11.315Z,16.80
2018-07-30T04:26:39.433Z,14.83
2018-07-30T04:29:13.761Z,14.97
2018-07-30T04:31:41.852Z,14.80
2018-07-30T04:34:09.932Z,14.20
2018-07-30T04:36:38.515Z,14.23
2018-07-30T04:39:09.823Z,14.50
2018-07-30T04:41:37.959Z,15.27
2018-07-30T04:44:06.279Z,14.63
2018-07-30T04:46:42.092Z,13.67
2018-07-30T04:49:10.229Z,15.07
2018-07-30T04:51:44.630Z,14.77
2018-07-30T04:54:22.206Z,14.20
2018-07-30T04:56:50.313Z,14.33
2018-07-30T04:59:18.373Z,15.37
2018-07-30T05:01:51.977Z,14.60
2018-07-30T05:04:24.041Z,14.60
2018-07-30T05:06:52.909Z,15.83
2018-07-30T05:09:22.421Z,14.10
2018-07-30T05:11:52.160Z,14.37
2018-07-30T05:14:24.647Z,15.00
2018-07-30T05:16:52.764Z,15.83
2018-07-30T05:19:22.484Z,14.83
2018-07-30T05:21:52.257Z,14.90
2018-07-30T05:24:20.372Z,14.87
2018-07-30T05:26:54.580Z,14.40
2018-07-30T05:29:33.376Z,14.63
2018-07-30T05:32:02.201Z,13.20
2018-07-30T05:34:30.251Z,13.77
2018-07-30T05:37:03.863Z,12.03
2018-07-30T05:39:32.984Z,11.50
2018-07-30T05:42:02.631Z,10.60
2018-07-30T05:44:30.769Z,10.40
2018-07-30T05:47:04.706Z,11.08
2018-07-30T05:49:43.128Z,10.80
2018-07-30T05:52:11.412Z,10.30
2018-07-30T05:54:42.786Z,9.38
2018-07-30T05:57:12.438Z,9.63
2018-07-30T05:59:44.216Z,9.55
2018-07-30T06:02:12.262Z,9.88
2018-07-30T06:04:43.573Z,9.58
2018-07-30T06:07:12.665Z,12.68
2018-07-30T06:09:44.329Z,9.18
2018-07-30T06:12:12.530Z,9.78
2018-07-30T06:14:42.548Z,9.48
2018-07-30T06:17:12.195Z,9.00
2018-07-30T06:19:40.410Z,9.08
2018-07-30T06:22:08.575Z,8.88
2018-07-30T06:24:36.648Z,8.53
2018-07-30T06:27:12.235Z,9.20
2018-07-30T06:29:40.124Z,7.95
2018-07-30T06:32:08.306Z,8.00
2018-07-30T06:34:42.294Z,8.05
2018-07-30T06:37:10.501Z,9.10
2018-07-30T06:39:44.523Z,8.15
2018-07-30T06:42:22.066Z,8.25
2018-07-30T06:44:50.159Z,8.40
2018-07-30T06:47:18.334Z,8.25
2018-07-30T06:49:46.458Z,9.13
2018-07-30T06:52:21.788Z,10.28
2018-07-30T06:54:50.558Z,9.75
2018-07-30T06:57:18.812Z,8.45
2018-07-30T06:59:46.940Z,8.68
2018-07-30T07:02:15.076Z,9.10
2018-07-30T07:04:53.060Z,8.83
2018-07-30T07:07:22.212Z,8.63
2018-07-30T07:09:53.866Z,8.08
2018-07-30T07:12:21.970Z,9.48
2018-07-30T07:14:53.042Z,8.00
2018-07-30T07:17:23.493Z,9.30
2018-07-30T07:19:51.597Z,10.98
2018-07-30T07:22:19.762Z,10.20
2018-07-30T07:24:47.859Z,9.35
2018-07-30T07:27:22.257Z,7.70
2018-07-30T07:29:53.553Z,8.70
2018-07-30T07:32:21.737Z,8.00
2018-07-30T07:34:49.840Z,8.30
2018-07-30T07:37:17.945Z,8.20
2018-07-30T07:39:46.097Z,8.50
2018-07-30T07:42:14.308Z,8.73
2018-07-30T07:44:42.458Z,11.55
2018-07-30T07:47:14.140Z,8.20
2018-07-30T07:49:52.343Z,7.85
2018-07-30T07:52:20.570Z,8.13
2018-07-30T07:54:54.269Z,7.72
2018-07-30T07:57:22.406Z,8.00
2018-07-30T07:59:50.646Z,8.28
2018-07-30T08:02:18.795Z,8.40
2018-07-30T08:04:53.386Z,8.05
2018-07-30T08:07:22.563Z,10.05
2018-07-30T08:09:50.931Z,8.78
2018-07-30T08:12:24.465Z,8.45
2018-07-30T08:14:52.554Z,8.38
2018-07-30T08:17:20.774Z,7.83
2018-07-30T08:19:49.008Z,11.05
2018-07-30T08:22:17.290Z,8.68
2018-07-30T08:24:45.480Z,7.37
2018-07-30T08:27:13.682Z,8.10
2018-07-30T08:29:42.858Z,8.03
2018-07-30T08:32:12.575Z,7.33
2018-07-30T08:34:40.741Z,7.40
2018-07-30T08:37:14.634Z,8.10
2018-07-30T08:39:42.767Z,7.85
2018-07-30T08:42:11.124Z,6.95
2018-07-30T08:44:39.255Z,7.20
2018-07-30T08:47:07.384Z,7.05
2018-07-30T08:49:35.557Z,7.28
2018-07-30T08:52:03.948Z,6.95
2018-07-30T08:54:32.255Z,7.10
2018-07-30T08:57:04.059Z,7.10
2018-07-30T08:59:32.197Z,7.20
2018-07-30T09:02:00.304Z,9.35
2018-07-30T09:04:28.387Z,7.40
2018-07-30T09:06:56.512Z,6.72
2018-07-30T09:09:31.918Z,6.92
2018-07-30T09:12:00.124Z,6.95
2018-07-30T09:14:28.410Z,6.25
2018-07-30T09:17:02.825Z,6.85
2018-07-30T09:19:30.937Z,8.05
2018-07-30T09:22:03.264Z,7.03
2018-07-30T09:24:31.359Z,6.50
2018-07-30T09:26:59.520Z,6.15
2018-07-30T09:29:27.598Z,6.25
2018-07-30T09:31:55.773Z,6.40
2018-07-30T09:34:31.822Z,9.38
2018-07-30T09:37:03.042Z,6.80
2018-07-30T09:39:32.730Z,6.10
2018-07-30T09:42:00.818Z,10.08
2018-07-30T09:44:34.802Z,6.28
2018-07-30T09:47:02.982Z,6.95
2018-07-30T09:49:32.601Z,5.60
2018-07-30T09:52:00.834Z,6.28
2018-07-30T09:54:28.978Z,5.90
2018-07-30T09:56:57.181Z,6.47
2018-07-30T09:59:32.009Z,5.72
2018-07-30T10:02:00.164Z,5.67
2018-07-30T10:04:28.487Z,5.87
2018-07-30T10:07:02.963Z,6.10
2018-07-30T10:09:31.128Z,6.20
2018-07-30T10:12:02.766Z,5.70
2018-07-30T10:14:31.084Z,5.42
2018-07-30T10:17:03.390Z,5.90
2018-07-30T10:19:32.938Z,5.60
2018-07-30T10:22:02.802Z,7.28
2018-07-30T10:24:30.997Z,6.12
2018-07-30T10:26:59.203Z,6.15
2018-07-30T10:29:27.338Z,5.90
2018-07-30T10:31:55.594Z,6.72
2018-07-30T10:34:23.791Z,5.17
2018-07-30T10:36:52.584Z,5.70
2018-07-30T10:39:20.776Z,5.47
2018-07-30T10:41:52.923Z,5.22
2018-07-30T10:44:22.564Z,5.40
2018-07-30T10:46:50.775Z,5.40
2018-07-30T10:49:18.988Z,5.87
2018-07-30T10:51:47.241Z,5.97
2018-07-30T10:54:21.737Z,5.80
2018-07-30T10:56:52.912Z,7.35
2018-07-30T10:59:22.685Z,6.05
2018-07-30T11:01:50.877Z,7.33
2018-07-30T11:04:19.095Z,5.40
2018-07-30T11:06:47.270Z,5.58
2018-07-30T11:09:22.563Z,6.10
2018-07-30T11:11:50.713Z,7.22
2018-07-30T11:14:18.955Z,5.95
2018-07-30T11:16:52.679Z,5.60
2018-07-30T11:19:20.959Z,6.03
2018-07-30T11:21:52.526Z,6.40
2018-07-30T11:24:22.397Z,5.70
2018-07-30T11:26:55.055Z,5.40
2018-07-30T11:29:33.307Z,5.72
2018-07-30T11:32:01.583Z,5.33
2018-07-30T11:34:29.825Z,5.40
2018-07-30T11:36:57.930Z,5.30
2018-07-30T11:39:26.089Z,5.28
2018-07-30T11:42:02.638Z,6.15
2018-07-30T11:44:30.786Z,5.30
2018-07-30T11:47:02.644Z,6.12
2018-07-30T11:49:30.848Z,5.10
2018-07-30T11:51:59.032Z,5.03
2018-07-30T11:54:27.345Z,5.12
2018-07-30T11:57:01.745Z,5.92
2018-07-30T11:59:29.902Z,6.80
2018-07-30T12:01:58.155Z,5.35
2018-07-30T12:04:32.718Z,5.58
2018-07-30T12:07:00.969Z,4.92
2018-07-30T12:09:29.126Z,5.00
2018-07-30T12:12:03.679Z,10.05
2018-07-30T12:14:31.857Z,5.75
2018-07-30T12:17:00.002Z,4.28
2018-07-30T12:19:28.257Z,4.42
2018-07-30T12:21:56.358Z,4.65
2018-07-30T12:24:32.267Z,7.28
2018-07-30T12:27:00.458Z,5.58
2018-07-30T12:29:28.653Z,4.72
2018-07-30T12:32:02.622Z,8.43
2018-07-30T12:34:30.861Z,4.00
2018-07-30T12:37:02.391Z,4.62
2018-07-30T12:39:30.581Z,4.22
2018-07-30T12:41:58.735Z,6.35
2018-07-30T12:44:26.853Z,4.78
2018-07-30T12:46:55.001Z,4.83
2018-07-30T12:49:23.139Z,4.75
2018-07-30T12:51:51.560Z,4.28
2018-07-30T12:54:20.025Z,5.12
2018-07-30T12:56:48.285Z,6.53
2018-07-30T12:59:16.378Z,5.47
2018-07-30T13:01:51.728Z,4.90
2018-07-30T13:04:19.947Z,5.97
2018-07-30T13:06:53.782Z,4.85
2018-07-30T13:09:21.997Z,8.03
2018-07-30T13:11:50.229Z,5.90
2018-07-30T13:14:22.216Z,5.03
2018-07-30T13:16:53.927Z,4.87
2018-07-30T13:19:22.579Z,5.75
2018-07-30T13:21:50.845Z,5.10
2018-07-30T13:24:19.067Z,4.97
2018-07-30T13:26:47.340Z,5.62
2018-07-30T13:29:15.411Z,4.70
2018-07-30T13:31:43.576Z,4.85
2018-07-30T13:34:11.764Z,5.28
2018-07-30T13:36:43.154Z,5.03
2018-07-30T13:39:12.906Z,5.20
2018-07-30T13:41:42.835Z,5.25
2018-07-30T13:44:11.033Z,5.17
2018-07-30T13:46:39.289Z,5.15
2018-07-30T13:49:07.742Z,5.37
2018-07-30T13:51:35.884Z,4.90
2018-07-30T13:54:04.118Z,4.65
2018-07-30T13:56:32.300Z,5.28
2018-07-30T13:59:04.285Z,6.22
2018-07-30T14:01:42.206Z,5.20
2018-07-30T14:04:10.375Z,5.05
2018-07-30T14:06:44.643Z,4.67
2018-07-30T14:09:12.983Z,5.12
2018-07-30T14:11:41.232Z,4.33
2018-07-30T14:14:13.184Z,4.60
2018-07-30T14:16:42.697Z,4.60
2018-07-30T14:19:10.861Z,4.28
2018-07-30T14:21:44.676Z,6.12
2018-07-30T14:24:27.996Z,4.17
2018-07-30T14:27:02.030Z,4.75
2018-07-30T14:29:33.766Z,4.90
2018-07-30T14:32:01.942Z,4.53
2018-07-30T14:34:33.167Z,4.62
2018-07-30T14:37:01.316Z,5.45
2018-07-30T14:39:29.427Z,4.42
2018-07-30T14:41:57.644Z,4.60
2018-07-30T14:44:26.148Z,4.90
2018-07-30T14:47:02.504Z,4.58
2018-07-30T14:49:30.727Z,5.30
2018-07-30T14:51:58.888Z,4.97
2018-07-30T14:54:33.489Z,5.47
2018-07-30T14:57:01.726Z,4.20
2018-07-30T14:59:29.945Z,6.53
2018-07-30T15:02:04.446Z,4.78
2018-07-30T15:04:32.598Z,4.58
2018-07-30T15:07:04.246Z,4.62
2018-07-30T15:09:32.331Z,4.22
2018-07-30T15:12:03.642Z,3.98
2018-07-30T15:14:33.213Z,4.40
2018-07-30T15:17:02.777Z,4.95
2018-07-30T15:19:30.933Z,4.30
2018-07-30T15:21:59.003Z,4.60
2018-07-30T15:24:27.121Z,4.12
2018-07-30T15:26:55.398Z,4.62
2018-07-30T15:29:31.758Z,4.30
2018-07-30T15:31:59.969Z,4.30
2018-07-30T15:34:27.897Z,4.55
2018-07-30T15:37:02.645Z,4.30
2018-07-30T15:39:30.855Z,4.40
2018-07-30T15:42:02.687Z,4.87
2018-07-30T15:44:34.123Z,4.72
2018-07-30T15:47:12.702Z,4.62
2018-07-30T15:49:41.050Z,5.10
2018-07-30T15:52:09.192Z,6.50
2018-07-30T15:54:37.550Z,6.95
2018-07-30T15:57:06.034Z,4.60
2018-07-30T15:59:34.135Z,5.00
2018-07-30T16:02:12.549Z,4.50
2018-07-30T16:04:40.773Z,4.75
2018-07-30T16:07:12.438Z,5.33
2018-07-30T16:09:44.122Z,5.03
2018-07-30T16:12:22.449Z,6.35
2018-07-30T16:14:50.599Z,5.20
2018-07-30T16:17:18.756Z,7.95
2018-07-30T16:19:46.934Z,6.62
2018-07-30T16:22:15.186Z,5.40
2018-07-30T16:24:43.386Z,5.17
2018-07-30T16:27:11.638Z,5.33
2018-07-30T16:29:43.621Z,5.75
2018-07-30T16:32:12.233Z,5.53
2018-07-30T16:34:44.000Z,5.85
2018-07-30T16:37:12.230Z,5.20
2018-07-30T16:39:40.476Z,6.53
2018-07-30T16:42:08.693Z,5.30
2018-07-30T16:44:36.825Z,5.92
2018-07-30T16:47:05.182Z,5.20
2018-07-30T16:49:33.414Z,5.65
2018-07-30T16:52:03.001Z,6.08
2018-07-30T16:54:32.813Z,5.42
2018-07-30T16:57:01.040Z,6.00
2018-07-30T16:59:29.382Z,6.03
2018-07-30T17:01:57.666Z,5.53
2018-07-30T17:04:25.923Z,7.47
2018-07-30T17:07:02.423Z,5.70
2018-07-30T17:09:30.563Z,6.67
2018-07-30T17:11:58.980Z,6.00
2018-07-30T17:14:27.196Z,6.12
2018-07-30T17:17:02.092Z,5.80
2018-07-30T17:19:30.451Z,6.67
2018-07-30T17:22:04.410Z,5.75
2018-07-30T17:24:42.914Z,5.87
2018-07-30T17:27:11.131Z,5.67
2018-07-30T17:29:39.681Z,5.75
2018-07-30T17:32:08.125Z,5.37
2018-07-30T17:34:42.416Z,7.12
2018-07-30T17:37:10.540Z,5.60
2018-07-30T17:39:38.715Z,6.03
2018-07-30T17:42:12.392Z,8.85
2018-07-30T17:44:41.818Z,7.30
2018-07-30T17:47:13.051Z,7.37
2018-07-30T17:49:41.154Z,5.95
2018-07-30T17:52:14.269Z,5.70
2018-07-30T17:54:52.471Z,6.40
2018-07-30T17:57:20.571Z,5.97
2018-07-30T17:59:48.812Z,5.72
2018-07-30T18:02:17.651Z,7.10
2018-07-30T18:04:52.146Z,6.78
2018-07-30T18:07:20.347Z,5.50
2018-07-30T18:09:54.561Z,5.22
2018-07-30T18:12:22.802Z,6.17
2018-07-30T18:14:52.334Z,5.55
2018-07-30T18:17:20.635Z,6.78
2018-07-30T18:19:48.898Z,5.30
2018-07-30T18:22:17.112Z,7.22
2018-07-30T18:24:45.331Z,5.70
2018-07-30T18:27:13.444Z,5.58
2018-07-30T18:29:41.771Z,5.22
2018-07-30T18:32:13.593Z,5.37
2018-07-30T18:34:42.358Z,6.50
2018-07-30T18:37:10.639Z,7.37
2018-07-30T18:39:38.795Z,5.67
2018-07-30T18:42:12.694Z,7.55
2018-07-30T18:44:40.990Z,5.60
2018-07-30T18:47:12.280Z,6.00
2018-07-30T18:49:40.400Z,5.60
2018-07-30T18:52:08.553Z,5.45
2018-07-30T18:54:36.701Z,5.62
2018-07-30T18:57:12.439Z,5.33
2018-07-30T18:59:40.708Z,5.45
2018-07-30T19:02:08.889Z,7.53
2018-07-30T19:04:37.043Z,5.92
2018-07-30T19:07:11.897Z,5.40
2018-07-30T19:09:40.057Z,5.75
2018-07-30T19:12:08.282Z,5.67
2018-07-30T19:14:36.464Z,5.15
2018-07-30T19:17:12.469Z,5.53
2018-07-30T19:19:40.614Z,7.28
2018-07-30T19:22:12.382Z,8.25
2018-07-30T19:24:43.972Z,5.10
2018-07-30T19:27:12.130Z,5.28
2018-07-30T19:29:44.077Z,5.87
2018-07-30T19:32:22.336Z,5.20
2018-07-30T19:34:50.401Z,5.75
2018-07-30T19:37:18.550Z,5.90
2018-07-30T19:39:52.086Z,7.05
2018-07-30T19:42:20.253Z,5.40
2018-07-30T19:44:54.452Z,5.83
2018-07-30T19:47:22.760Z,5.75
2018-07-30T19:49:54.061Z,5.03
2018-07-30T19:52:22.691Z,6.15
2018-07-30T19:54:50.833Z,5.47
2018-07-30T19:57:21.939Z,7.62
2018-07-30T19:59:53.538Z,5.78
2018-07-30T20:02:23.167Z,6.10
2018-07-30T20:04:51.226Z,5.33
2018-07-30T20:07:19.403Z,6.37
2018-07-30T20:09:53.461Z,7.12
2018-07-30T20:12:21.675Z,6.53
2018-07-30T20:14:49.904Z,6.00
2018-07-30T20:17:18.047Z,9.48
2018-07-30T20:19:46.385Z,5.97
2018-07-30T20:22:14.629Z,5.83
2018-07-30T20:24:52.489Z,5.65
2018-07-30T20:27:21.005Z,6.25
2018-07-30T20:29:49.357Z,6.00
2018-07-30T20:32:17.530Z,6.08
2018-07-30T20:34:45.830Z,6.70
2018-07-30T20:37:23.511Z,6.20
2018-07-30T20:39:51.872Z,5.60
2018-07-30T20:42:20.016Z,6.30
2018-07-30T20:44:54.555Z,5.95
2018-07-30T20:47:33.030Z,6.20
2018-07-30T20:50:01.179Z,5.45
2018-07-30T20:52:29.239Z,5.58
2018-07-30T20:55:02.842Z,6.50
2018-07-30T20:57:31.219Z,6.00
2018-07-30T21:00:02.434Z,5.97
2018-07-30T21:02:30.554Z,7.05
2018-07-30T21:05:04.428Z,11.83
2018-07-30T21:07:42.068Z,5.53
2018-07-30T21:10:10.163Z,6.67
2018-07-30T21:12:38.429Z,6.15
2018-07-30T21:15:12.935Z,10.40
2018-07-30T21:17:41.823Z,6.10
2018-07-30T21:20:13.414Z,6.37
2018-07-30T21:22:41.537Z,6.20
2018-07-30T21:25:12.728Z,6.40
2018-07-30T21:27:40.896Z,6.20
2018-07-30T21:30:09.739Z,8.15
2018-07-30T21:32:37.977Z,7.83
2018-07-30T21:35:12.008Z,6.92
2018-07-30T21:37:44.134Z,6.42
2018-07-30T21:40:12.243Z,7.28
2018-07-30T21:42:40.507Z,9.13
2018-07-30T21:45:08.682Z,6.60
2018-07-30T21:47:43.102Z,8.65
2018-07-30T21:50:12.324Z,5.97
2018-07-30T21:52:40.481Z,5.70
2018-07-30T21:55:08.603Z,8.85
2018-07-30T21:57:36.786Z,8.60
2018-07-30T22:00:16.792Z,6.33
2018-07-30T22:02:51.537Z,5.90
2018-07-30T22:05:20.017Z,6.28
2018-07-30T22:07:48.208Z,7.30
2018-07-30T22:10:23.526Z,8.58
2018-07-30T22:12:54.881Z,6.87
2018-07-30T22:15:23.701Z,6.55
2018-07-30T22:17:51.920Z,9.88
2018-07-30T22:20:20.184Z,6.85
2018-07-30T22:22:48.281Z,6.70
2018-07-30T22:25:22.243Z,6.35
2018-07-30T22:27:50.623Z,6.50
2018-07-30T22:30:25.205Z,7.40
2018-07-30T22:32:53.311Z,6.45
2018-07-30T22:35:21.483Z,8.10
2018-07-30T22:37:49.644Z,6.90
2018-07-30T22:40:23.807Z,7.03
2018-07-30T22:42:51.987Z,7.40
2018-07-30T22:45:20.239Z,6.83
2018-07-30T22:47:48.358Z,6.33
2018-07-30T22:50:16.639Z,6.37
2018-07-30T22:52:44.878Z,6.60
2018-07-30T22:55:23.348Z,6.30
2018-07-30T22:57:52.469Z,6.17
2018-07-30T23:00:22.253Z,6.40
2018-07-30T23:02:50.367Z,6.37
2018-07-30T23:05:18.661Z,6.73
2018-07-30T23:07:46.801Z,6.23
2018-07-30T23:10:22.266Z,6.40
2018-07-30T23:12:50.381Z,7.23
2018-07-30T23:15:18.536Z,9.10
2018-07-30T23:17:52.408Z,7.13
2018-07-30T23:20:20.526Z,8.00
2018-07-30T23:22:48.670Z,7.67
2018-07-30T23:25:22.281Z,6.22
2018-07-30T23:27:52.420Z,6.57
2018-07-30T23:30:23.817Z,8.13
2018-07-30T23:32:52.747Z,7.37
2018-07-30T23:35:20.946Z,11.40
2018-07-30T23:37:53.241Z,7.20
2018-07-30T23:40:22.336Z,8.10
2018-07-30T23:42:50.456Z,6.67
2018-07-30T23:45:18.609Z,8.03
2018-07-30T23:47:52.545Z,7.40
2018-07-30T23:50:23.666Z,7.90
2018-07-30T23:52:52.333Z,8.53
2018-07-30T23:55:20.481Z,9.57
2018-07-30T23:57:48.536Z,7.87
